sensor_id;sensor_type;location;lat;lon;timestamp;temperature;humidity
21928;DHT22;11128;51.096;17.190;2023-07-22T00:01:25;20.00;99.90
21928;DHT22;11128;51.096;17.190;2023-07-22T00:06:27;20.00;99.90
21928;DHT22;11128;51.096;17.190;2023-07-22T00:11:28;19.90;99.90
21928;DHT22;11128;51.096;17.190;2023-07-22T00:16:29;19.90;99.90
21928;DHT22;11128;51.096;17.190;2023-07-22T00:21:30;19.80;99.90
21928;DHT22;11128;51.096;17.190;2023-07-22T00:26:31;19.90;99.90
21928;DHT22;11128;51.096;17.190;2023-07-22T00:31:32;19.80;99.90
21928;DHT22;11128;51.096;17.190;2023-07-22T00:36:33;19.70;99.90
21928;DHT22;11128;51.096;17.190;2023-07-22T00:41:35;19.60;99.90
21928;DHT22;11128;51.096;17.190;2023-07-22T00:46:36;19.60;99.90
21928;DHT22;11128;51.096;17.190;2023-07-22T00:51:37;19.50;99.90
21928;DHT22;11128;51.096;17.190;2023-07-22T00:56:40;19.50;99.90
21928;DHT22;11128;51.096;17.190;2023-07-22T01:01:43;19.50;99.90
21928;DHT22;11128;51.096;17.190;2023-07-22T01:06:44;19.50;99.90
21928;DHT22;11128;51.096;17.190;2023-07-22T01:11:46;19.40;99.90
21928;DHT22;11128;51.096;17.190;2023-07-22T01:16:47;19.40;99.90
21928;DHT22;11128;51.096;17.190;2023-07-22T01:21:50;19.30;99.90
21928;DHT22;11128;51.096;17.190;2023-07-22T01:26:52;19.20;99.90
21928;DHT22;11128;51.096;17.190;2023-07-22T01:31:54;19.10;99.90
21928;DHT22;11128;51.096;17.190;2023-07-22T01:36:56;19.10;99.90
21928;DHT22;11128;51.096;17.190;2023-07-22T01:41:57;19.00;99.90
21928;DHT22;11128;51.096;17.190;2023-07-22T01:47:02;19.10;99.90
21928;DHT22;11128;51.096;17.190;2023-07-22T01:52:04;18.90;99.90
21928;DHT22;11128;51.096;17.190;2023-07-22T01:57:06;18.90;99.90
21928;DHT22;11128;51.096;17.190;2023-07-22T02:02:07;18.90;99.90
21928;DHT22;11128;51.096;17.190;2023-07-22T02:07:08;18.90;99.90
21928;DHT22;11128;51.096;17.190;2023-07-22T02:12:09;18.80;99.90
21928;DHT22;11128;51.096;17.190;2023-07-22T02:17:11;18.80;99.90
21928;DHT22;11128;51.096;17.190;2023-07-22T02:22:12;18.70;99.90
21928;DHT22;11128;51.096;17.190;2023-07-22T02:27:14;18.70;99.90
21928;DHT22;11128;51.096;17.190;2023-07-22T02:32:15;18.70;99.90
21928;DHT22;11128;51.096;17.190;2023-07-22T02:37:16;18.70;99.90
21928;DHT22;11128;51.096;17.190;2023-07-22T02:42:17;18.80;99.90
21928;DHT22;11128;51.096;17.190;2023-07-22T02:47:18;18.70;99.90
21928;DHT22;11128;51.096;17.190;2023-07-22T02:52:19;18.60;99.90
21928;DHT22;11128;51.096;17.190;2023-07-22T02:57:21;18.70;99.90
21928;DHT22;11128;51.096;17.190;2023-07-22T03:02:22;18.70;99.90
21928;DHT22;11128;51.096;17.190;2023-07-22T03:07:23;18.60;99.90
21928;DHT22;11128;51.096;17.190;2023-07-22T03:12:27;18.50;99.90
21928;DHT22;11128;51.096;17.190;2023-07-22T03:17:28;18.40;99.90
21928;DHT22;11128;51.096;17.190;2023-07-22T03:22:30;18.40;1.00
21928;DHT22;11128;51.096;17.190;2023-07-22T03:27:32;18.30;1.00
21928;DHT22;11128;51.096;17.190;2023-07-22T03:32:34;18.40;99.90
21928;DHT22;11128;51.096;17.190;2023-07-22T03:37:35;18.30;99.90
21928;DHT22;11128;51.096;17.190;2023-07-22T03:42:39;18.40;1.00
21928;DHT22;11128;51.096;17.190;2023-07-22T03:47:40;18.30;1.00
21928;DHT22;11128;51.096;17.190;2023-07-22T03:52:42;18.30;99.90
21928;DHT22;11128;51.096;17.190;2023-07-22T03:57:43;18.40;99.90
21928;DHT22;11128;51.096;17.190;2023-07-22T04:02:44;18.40;1.00
21928;DHT22;11128;51.096;17.190;2023-07-22T04:07:45;18.40;99.90
21928;DHT22;11128;51.096;17.190;2023-07-22T04:12:46;18.40;1.00
21928;DHT22;11128;51.096;17.190;2023-07-22T04:17:48;18.40;1.00
21928;DHT22;11128;51.096;17.190;2023-07-22T04:22:49;18.30;1.00
21928;DHT22;11128;51.096;17.190;2023-07-22T04:27:50;18.30;1.00
21928;DHT22;11128;51.096;17.190;2023-07-22T04:32:51;18.20;1.00
21928;DHT22;11128;51.096;17.190;2023-07-22T04:37:53;18.30;1.00
21928;DHT22;11128;51.096;17.190;2023-07-22T04:42:54;18.30;1.00
21928;DHT22;11128;51.096;17.190;2023-07-22T04:47:55;18.30;1.00
21928;DHT22;11128;51.096;17.190;2023-07-22T04:52:56;18.40;1.00
21928;DHT22;11128;51.096;17.190;2023-07-22T04:57:58;18.30;1.00
21928;DHT22;11128;51.096;17.190;2023-07-22T05:02:59;18.30;1.00
21928;DHT22;11128;51.096;17.190;2023-07-22T05:08:00;18.30;1.00
21928;DHT22;11128;51.096;17.190;2023-07-22T05:13:02;18.30;1.00
21928;DHT22;11128;51.096;17.190;2023-07-22T05:18:03;18.40;1.00
21928;DHT22;11128;51.096;17.190;2023-07-22T05:23:05;18.30;1.00
21928;DHT22;11128;51.096;17.190;2023-07-22T05:28:06;18.30;1.00
21928;DHT22;11128;51.096;17.190;2023-07-22T05:33:07;18.30;1.00
21928;DHT22;11128;51.096;17.190;2023-07-22T05:38:08;18.30;1.00
21928;DHT22;11128;51.096;17.190;2023-07-22T05:43:09;18.30;1.00
21928;DHT22;11128;51.096;17.190;2023-07-22T05:48:11;18.30;1.00
21928;DHT22;11128;51.096;17.190;2023-07-22T05:53:12;18.30;1.00
21928;DHT22;11128;51.096;17.190;2023-07-22T05:58:17;18.40;99.90
21928;DHT22;11128;51.096;17.190;2023-07-22T06:03:18;18.40;99.90
21928;DHT22;11128;51.096;17.190;2023-07-22T06:08:20;18.50;99.90
21928;DHT22;11128;51.096;17.190;2023-07-22T06:13:21;18.50;99.90
21928;DHT22;11128;51.096;17.190;2023-07-22T06:18:23;18.60;99.90
21928;DHT22;11128;51.096;17.190;2023-07-22T06:23:24;18.60;99.90
21928;DHT22;11128;51.096;17.190;2023-07-22T06:28:25;18.70;99.90
21928;DHT22;11128;51.096;17.190;2023-07-22T06:33:26;18.70;99.90
21928;DHT22;11128;51.096;17.190;2023-07-22T06:38:28;18.80;99.90
21928;DHT22;11128;51.096;17.190;2023-07-22T06:43:29;18.90;99.90
21928;DHT22;11128;51.096;17.190;2023-07-22T06:48:30;19.00;99.90
21928;DHT22;11128;51.096;17.190;2023-07-22T06:53:32;19.10;99.90
21928;DHT22;11128;51.096;17.190;2023-07-22T06:58:33;19.20;99.90
21928;DHT22;11128;51.096;17.190;2023-07-22T07:03:34;19.40;99.90
21928;DHT22;11128;51.096;17.190;2023-07-22T07:08:36;19.50;99.90
21928;DHT22;11128;51.096;17.190;2023-07-22T07:13:38;19.50;99.90
21928;DHT22;11128;51.096;17.190;2023-07-22T07:18:39;19.60;99.90
21928;DHT22;11128;51.096;17.190;2023-07-22T07:23:40;19.60;99.90
21928;DHT22;11128;51.096;17.190;2023-07-22T07:28:41;19.70;99.90
21928;DHT22;11128;51.096;17.190;2023-07-22T07:33:42;19.80;91.80
21928;DHT22;11128;51.096;17.190;2023-07-22T07:38:44;19.90;58.10
21928;DHT22;11128;51.096;17.190;2023-07-22T07:43:45;20.10;47.90
21928;DHT22;11128;51.096;17.190;2023-07-22T07:48:51;20.20;12.70
21928;DHT22;11128;51.096;17.190;2023-07-22T07:53:53;20.40;23.30
21928;DHT22;11128;51.096;17.190;2023-07-22T07:58:54;20.60;1.00
21928;DHT22;11128;51.096;17.190;2023-07-22T08:03:56;20.80;1.00
21928;DHT22;11128;51.096;17.190;2023-07-22T08:08:57;20.90;1.00
21928;DHT22;11128;51.096;17.190;2023-07-22T08:13:58;21.10;1.00
21928;DHT22;11128;51.096;17.190;2023-07-22T08:18:59;21.20;1.00
21928;DHT22;11128;51.096;17.190;2023-07-22T08:24:01;21.40;1.00
21928;DHT22;11128;51.096;17.190;2023-07-22T08:29:03;21.50;1.00
21928;DHT22;11128;51.096;17.190;2023-07-22T08:34:04;21.60;1.00
21928;DHT22;11128;51.096;17.190;2023-07-22T08:39:05;21.70;1.00
21928;DHT22;11128;51.096;17.190;2023-07-22T08:44:08;21.70;1.00
21928;DHT22;11128;51.096;17.190;2023-07-22T08:49:10;22.00;1.00
21928;DHT22;11128;51.096;17.190;2023-07-22T08:54:13;22.10;1.00
21928;DHT22;11128;51.096;17.190;2023-07-22T08:59:15;22.40;1.00
21928;DHT22;11128;51.096;17.190;2023-07-22T09:04:18;22.40;1.00
21928;DHT22;11128;51.096;17.190;2023-07-22T09:09:21;22.40;1.00
21928;DHT22;11128;51.096;17.190;2023-07-22T09:14:23;22.50;1.00
21928;DHT22;11128;51.096;17.190;2023-07-22T09:19:25;22.60;1.00
21928;DHT22;11128;51.096;17.190;2023-07-22T09:24:27;23.00;1.00
21928;DHT22;11128;51.096;17.190;2023-07-22T09:29:37;23.50;1.00
21928;DHT22;11128;51.096;17.190;2023-07-22T09:34:54;23.80;1.00
21928;DHT22;11128;51.096;17.190;2023-07-22T09:39:55;24.00;1.00
21928;DHT22;11128;51.096;17.190;2023-07-22T09:44:56;24.10;1.00
21928;DHT22;11128;51.096;17.190;2023-07-22T09:49:57;24.20;1.00
21928;DHT22;11128;51.096;17.190;2023-07-22T09:54:59;24.10;1.00
21928;DHT22;11128;51.096;17.190;2023-07-22T10:00:01;24.00;1.00
21928;DHT22;11128;51.096;17.190;2023-07-22T10:05:04;23.90;1.00
21928;DHT22;11128;51.096;17.190;2023-07-22T10:10:06;23.90;1.00
21928;DHT22;11128;51.096;17.190;2023-07-22T10:15:09;23.90;1.00
21928;DHT22;11128;51.096;17.190;2023-07-22T10:20:12;24.00;1.00
21928;DHT22;11128;51.096;17.190;2023-07-22T10:25:18;24.30;1.00
21928;DHT22;11128;51.096;17.190;2023-07-22T10:30:20;24.20;1.00
21928;DHT22;11128;51.096;17.190;2023-07-22T10:35:42;24.40;1.00
21928;DHT22;11128;51.096;17.190;2023-07-22T10:40:52;24.80;1.00
21928;DHT22;11128;51.096;17.190;2023-07-22T10:45:56;24.60;1.00
21928;DHT22;11128;51.096;17.190;2023-07-22T10:51:10;24.50;1.00
21928;DHT22;11128;51.096;17.190;2023-07-22T10:56:21;24.40;1.00
21928;DHT22;11128;51.096;17.190;2023-07-22T11:06:29;23.90;1.00
21928;DHT22;11128;51.096;17.190;2023-07-22T11:11:38;24.20;1.00
21928;DHT22;11128;51.096;17.190;2023-07-22T11:16:41;24.00;1.00
21928;DHT22;11128;51.096;17.190;2023-07-22T11:21:46;24.20;1.00
21928;DHT22;11128;51.096;17.190;2023-07-22T11:26:49;24.60;1.00
21928;DHT22;11128;51.096;17.190;2023-07-22T11:31:51;24.50;1.00
21928;DHT22;11128;51.096;17.190;2023-07-22T11:36:53;24.40;1.00
21928;DHT22;11128;51.096;17.190;2023-07-22T11:41:56;24.50;1.00
21928;DHT22;11128;51.096;17.190;2023-07-22T11:47:04;24.80;1.00
21928;DHT22;11128;51.096;17.190;2023-07-22T11:52:11;25.20;1.00
21928;DHT22;11128;51.096;17.190;2023-07-22T11:57:18;25.50;1.00
21928;DHT22;11128;51.096;17.190;2023-07-22T12:02:23;25.20;1.00
21928;DHT22;11128;51.096;17.190;2023-07-22T12:07:32;25.00;1.00
21928;DHT22;11128;51.096;17.190;2023-07-22T12:12:44;24.90;1.00
21928;DHT22;11128;51.096;17.190;2023-07-22T12:17:48;24.80;1.00
21928;DHT22;11128;51.096;17.190;2023-07-22T12:22:49;24.80;1.00
21928;DHT22;11128;51.096;17.190;2023-07-22T12:27:50;24.80;1.00
21928;DHT22;11128;51.096;17.190;2023-07-22T12:32:52;25.00;1.00
21928;DHT22;11128;51.096;17.190;2023-07-22T12:37:53;25.00;1.00
21928;DHT22;11128;51.096;17.190;2023-07-22T12:42:54;24.80;1.00
21928;DHT22;11128;51.096;17.190;2023-07-22T12:47:56;24.90;1.00
21928;DHT22;11128;51.096;17.190;2023-07-22T12:52:58;25.10;1.00
21928;DHT22;11128;51.096;17.190;2023-07-22T12:57:59;25.10;1.00
21928;DHT22;11128;51.096;17.190;2023-07-22T13:03:03;25.00;1.00
21928;DHT22;11128;51.096;17.190;2023-07-22T13:08:05;24.90;1.00
21928;DHT22;11128;51.096;17.190;2023-07-22T13:13:06;24.70;1.00
21928;DHT22;11128;51.096;17.190;2023-07-22T13:18:07;24.60;1.00
21928;DHT22;11128;51.096;17.190;2023-07-22T13:23:09;24.60;1.00
21928;DHT22;11128;51.096;17.190;2023-07-22T13:28:10;24.70;1.00
21928;DHT22;11128;51.096;17.190;2023-07-22T13:33:12;24.70;1.00
21928;DHT22;11128;51.096;17.190;2023-07-22T13:38:13;24.50;1.00
21928;DHT22;11128;51.096;17.190;2023-07-22T13:43:14;24.40;1.00
21928;DHT22;11128;51.096;17.190;2023-07-22T13:48:16;24.40;1.00
21928;DHT22;11128;51.096;17.190;2023-07-22T13:53:17;24.30;1.00
21928;DHT22;11128;51.096;17.190;2023-07-22T13:58:19;24.20;1.00
21928;DHT22;11128;51.096;17.190;2023-07-22T14:03:20;24.20;1.00
21928;DHT22;11128;51.096;17.190;2023-07-22T14:08:25;24.50;1.00
21928;DHT22;11128;51.096;17.190;2023-07-22T14:13:26;24.50;1.00
21928;DHT22;11128;51.096;17.190;2023-07-22T14:18:27;24.60;1.00
21928;DHT22;11128;51.096;17.190;2023-07-22T14:23:29;24.60;1.00
21928;DHT22;11128;51.096;17.190;2023-07-22T14:28:30;24.50;1.00
21928;DHT22;11128;51.096;17.190;2023-07-22T14:33:31;24.50;1.00
21928;DHT22;11128;51.096;17.190;2023-07-22T14:38:33;24.60;1.00
21928;DHT22;11128;51.096;17.190;2023-07-22T14:43:34;24.60;1.00
21928;DHT22;11128;51.096;17.190;2023-07-22T14:48:36;24.80;1.00
21928;DHT22;11128;51.096;17.190;2023-07-22T14:53:37;24.90;1.00
21928;DHT22;11128;51.096;17.190;2023-07-22T14:58:38;25.10;1.00
21928;DHT22;11128;51.096;17.190;2023-07-22T15:03:40;25.00;1.00
21928;DHT22;11128;51.096;17.190;2023-07-22T15:08:41;24.80;1.00
21928;DHT22;11128;51.096;17.190;2023-07-22T15:13:42;24.60;1.00
21928;DHT22;11128;51.096;17.190;2023-07-22T15:18:44;24.50;1.00
21928;DHT22;11128;51.096;17.190;2023-07-22T15:23:45;24.40;1.00
21928;DHT22;11128;51.096;17.190;2023-07-22T15:28:46;24.30;1.00
21928;DHT22;11128;51.096;17.190;2023-07-22T15:33:48;24.40;1.00
21928;DHT22;11128;51.096;17.190;2023-07-22T15:38:50;24.40;1.00
21928;DHT22;11128;51.096;17.190;2023-07-22T15:43:51;24.50;1.00
21928;DHT22;11128;51.096;17.190;2023-07-22T15:48:52;24.40;1.00
21928;DHT22;11128;51.096;17.190;2023-07-22T15:53:54;24.30;1.00
21928;DHT22;11128;51.096;17.190;2023-07-22T15:58:55;24.20;1.00
21928;DHT22;11128;51.096;17.190;2023-07-22T16:03:56;24.20;1.00
21928;DHT22;11128;51.096;17.190;2023-07-22T16:08:57;24.00;1.00
21928;DHT22;11128;51.096;17.190;2023-07-22T16:13:59;23.80;1.00
21928;DHT22;11128;51.096;17.190;2023-07-22T16:19:00;23.70;1.00
21928;DHT22;11128;51.096;17.190;2023-07-22T16:24:01;23.70;1.00
21928;DHT22;11128;51.096;17.190;2023-07-22T16:29:05;23.70;1.00
21928;DHT22;11128;51.096;17.190;2023-07-22T16:34:07;23.60;1.00
21928;DHT22;11128;51.096;17.190;2023-07-22T16:39:08;23.60;1.00
21928;DHT22;11128;51.096;17.190;2023-07-22T16:44:20;23.60;1.00
21928;DHT22;11128;51.096;17.190;2023-07-22T16:49:34;23.50;1.00
21928;DHT22;11128;51.096;17.190;2023-07-22T16:54:36;23.50;1.00
21928;DHT22;11128;51.096;17.190;2023-07-22T16:59:37;23.40;1.00
21928;DHT22;11128;51.096;17.190;2023-07-22T17:04:39;23.30;1.00
21928;DHT22;11128;51.096;17.190;2023-07-22T17:09:40;23.30;1.00
21928;DHT22;11128;51.096;17.190;2023-07-22T17:14:42;23.20;1.00
21928;DHT22;11128;51.096;17.190;2023-07-22T17:19:43;23.10;1.00
21928;DHT22;11128;51.096;17.190;2023-07-22T17:24:45;23.10;1.00
21928;DHT22;11128;51.096;17.190;2023-07-22T17:29:46;23.00;1.00
21928;DHT22;11128;51.096;17.190;2023-07-22T17:34:48;22.90;1.00
21928;DHT22;11128;51.096;17.190;2023-07-22T17:39:52;22.80;1.00
21928;DHT22;11128;51.096;17.190;2023-07-22T17:44:54;22.70;1.00
21928;DHT22;11128;51.096;17.190;2023-07-22T17:49:56;22.60;1.00
21928;DHT22;11128;51.096;17.190;2023-07-22T17:54:58;22.50;1.00
21928;DHT22;11128;51.096;17.190;2023-07-22T17:59:59;22.50;1.00
21928;DHT22;11128;51.096;17.190;2023-07-22T18:05:01;22.30;1.00
21928;DHT22;11128;51.096;17.190;2023-07-22T18:10:03;22.20;1.00
21928;DHT22;11128;51.096;17.190;2023-07-22T18:15:06;22.10;1.00
21928;DHT22;11128;51.096;17.190;2023-07-22T18:20:07;22.00;1.00
21928;DHT22;11128;51.096;17.190;2023-07-22T18:25:09;21.90;1.00
21928;DHT22;11128;51.096;17.190;2023-07-22T18:30:13;21.80;1.00
21928;DHT22;11128;51.096;17.190;2023-07-22T18:35:18;21.80;1.00
21928;DHT22;11128;51.096;17.190;2023-07-22T18:40:19;21.70;1.00
21928;DHT22;11128;51.096;17.190;2023-07-22T18:45:21;21.60;1.00
21928;DHT22;11128;51.096;17.190;2023-07-22T18:50:23;21.50;1.00
21928;DHT22;11128;51.096;17.190;2023-07-22T18:55:25;21.20;1.00
21928;DHT22;11128;51.096;17.190;2023-07-22T19:00:27;21.10;1.00
21928;DHT22;11128;51.096;17.190;2023-07-22T19:05:31;20.90;1.00
21928;DHT22;11128;51.096;17.190;2023-07-22T19:10:33;20.70;1.00
21928;DHT22;11128;51.096;17.190;2023-07-22T19:15:34;20.60;1.00
21928;DHT22;11128;51.096;17.190;2023-07-22T19:20:36;20.50;1.00
21928;DHT22;11128;51.096;17.190;2023-07-22T19:25:39;20.30;1.00
21928;DHT22;11128;51.096;17.190;2023-07-22T19:30:41;20.10;1.00
21928;DHT22;11128;51.096;17.190;2023-07-22T19:35:43;20.00;1.00
21928;DHT22;11128;51.096;17.190;2023-07-22T19:40:48;19.80;1.00
21928;DHT22;11128;51.096;17.190;2023-07-22T19:45:59;19.70;1.00
21928;DHT22;11128;51.096;17.190;2023-07-22T19:51:02;19.60;1.00
21928;DHT22;11128;51.096;17.190;2023-07-22T19:56:08;19.50;1.00
21928;DHT22;11128;51.096;17.190;2023-07-22T20:01:09;19.40;1.00
21928;DHT22;11128;51.096;17.190;2023-07-22T20:06:12;19.30;1.00
21928;DHT22;11128;51.096;17.190;2023-07-22T20:11:16;19.20;1.00
21928;DHT22;11128;51.096;17.190;2023-07-22T20:16:17;19.10;1.00
21928;DHT22;11128;51.096;17.190;2023-07-22T20:21:20;19.00;1.00
21928;DHT22;11128;51.096;17.190;2023-07-22T20:26:22;18.80;1.00
21928;DHT22;11128;51.096;17.190;2023-07-22T20:31:25;18.70;1.00
21928;DHT22;11128;51.096;17.190;2023-07-22T20:36:28;18.80;1.00
21928;DHT22;11128;51.096;17.190;2023-07-22T20:41:34;18.70;1.00
21928;DHT22;11128;51.096;17.190;2023-07-22T20:46:36;18.50;1.00
21928;DHT22;11128;51.096;17.190;2023-07-22T20:51:37;18.50;1.00
21928;DHT22;11128;51.096;17.190;2023-07-22T20:56:38;18.40;1.00
21928;DHT22;11128;51.096;17.190;2023-07-22T21:01:39;18.20;1.00
21928;DHT22;11128;51.096;17.190;2023-07-22T21:06:41;18.10;1.00
21928;DHT22;11128;51.096;17.190;2023-07-22T21:11:42;18.00;1.00
21928;DHT22;11128;51.096;17.190;2023-07-22T21:16:43;17.90;1.00
21928;DHT22;11128;51.096;17.190;2023-07-22T21:21:45;17.80;1.00
21928;DHT22;11128;51.096;17.190;2023-07-22T21:26:46;17.60;1.00
21928;DHT22;11128;51.096;17.190;2023-07-22T21:31:47;17.60;1.00
21928;DHT22;11128;51.096;17.190;2023-07-22T21:36:49;17.60;1.00
21928;DHT22;11128;51.096;17.190;2023-07-22T21:41:50;17.50;1.00
21928;DHT22;11128;51.096;17.190;2023-07-22T21:46:51;17.50;1.00
21928;DHT22;11128;51.096;17.190;2023-07-22T21:51:53;17.60;1.00
21928;DHT22;11128;51.096;17.190;2023-07-22T21:57:01;17.50;1.00
21928;DHT22;11128;51.096;17.190;2023-07-22T22:02:02;17.40;1.00
21928;DHT22;11128;51.096;17.190;2023-07-22T22:07:03;17.30;1.00
21928;DHT22;11128;51.096;17.190;2023-07-22T22:12:05;17.20;1.00
21928;DHT22;11128;51.096;17.190;2023-07-22T22:17:06;17.20;1.00
21928;DHT22;11128;51.096;17.190;2023-07-22T22:22:07;17.00;1.00
21928;DHT22;11128;51.096;17.190;2023-07-22T22:27:08;16.90;1.00
21928;DHT22;11128;51.096;17.190;2023-07-22T22:32:11;16.60;1.00
21928;DHT22;11128;51.096;17.190;2023-07-22T22:37:12;16.50;10.80
21928;DHT22;11128;51.096;17.190;2023-07-22T22:42:14;16.40;17.60
21928;DHT22;11128;51.096;17.190;2023-07-22T22:47:15;16.40;18.80
21928;DHT22;11128;51.096;17.190;2023-07-22T22:52:16;16.50;16.00
21928;DHT22;11128;51.096;17.190;2023-07-22T22:57:17;16.40;20.70
21928;DHT22;11128;51.096;17.190;2023-07-22T23:02:19;16.60;1.00
21928;DHT22;11128;51.096;17.190;2023-07-22T23:07:20;16.50;1.00
21928;DHT22;11128;51.096;17.190;2023-07-22T23:12:21;16.40;6.60
21928;DHT22;11128;51.096;17.190;2023-07-22T23:17:22;16.40;6.20
21928;DHT22;11128;51.096;17.190;2023-07-22T23:22:24;16.40;1.00
21928;DHT22;11128;51.096;17.190;2023-07-22T23:27:25;16.60;1.00
21928;DHT22;11128;51.096;17.190;2023-07-22T23:32:26;16.30;1.00
21928;DHT22;11128;51.096;17.190;2023-07-22T23:37:28;16.20;11.90
21928;DHT22;11128;51.096;17.190;2023-07-22T23:42:29;16.20;8.70
21928;DHT22;11128;51.096;17.190;2023-07-22T23:47:30;15.90;61.00
21928;DHT22;11128;51.096;17.190;2023-07-22T23:52:32;15.80;89.40
21928;DHT22;11128;51.096;17.190;2023-07-22T23:57:33;15.70;99.90
